createdAt,value
2022-11-16T00:00:05.328Z,53.04
2022-11-16T00:02:33.109Z,52.92
2022-11-16T00:04:59.881Z,53.10
2022-11-16T00:07:26.671Z,53.50
2022-11-16T00:09:53.481Z,53.81
2022-11-16T00:12:20.194Z,53.38
2022-11-16T00:14:46.960Z,53.94
2022-11-16T00:17:13.720Z,54.00
2022-11-16T00:19:40.450Z,53.91
2022-11-16T00:22:07.220Z,54.09
2022-11-16T00:24:34.390Z,53.75
2022-11-16T00:27:01.139Z,53.92
2022-11-16T00:29:27.897Z,54.14
2022-11-16T00:31:55.448Z,54.29
2022-11-16T00:34:23.297Z,54.68
2022-11-16T00:36:50.460Z,54.42
2022-11-16T00:39:17.980Z,54.57
2022-11-16T00:41:44.913Z,54.83
2022-11-16T00:44:12.103Z,54.85
2022-11-16T00:46:39.080Z,54.38
2022-11-16T00:49:05.884Z,54.82
2022-11-16T00:51:33.939Z,55.15
2022-11-16T00:54:01.315Z,55.14
2022-11-16T00:56:28.257Z,55.13
2022-11-16T00:58:55.002Z,55.11
2022-11-16T01:01:21.912Z,55.06
2022-11-16T01:03:48.756Z,54.90
2022-11-16T01:06:16.008Z,55.10
2022-11-16T01:08:43.929Z,55.06
2022-11-16T01:11:32.566Z,55.13
2022-11-16T01:14:04.837Z,55.43
2022-11-16T01:16:31.698Z,55.32
2022-11-16T01:18:58.719Z,55.28
2022-11-16T01:21:25.515Z,55.30
2022-11-16T01:23:53.011Z,55.14
2022-11-16T01:26:19.932Z,55.16
2022-11-16T01:28:46.711Z,55.29
2022-11-16T01:31:13.749Z,55.33
2022-11-16T01:33:40.524Z,55.53
2022-11-16T01:36:14.399Z,55.57
2022-11-16T01:38:42.699Z,55.49
2022-11-16T01:41:13.359Z,55.73
2022-11-16T01:43:55.308Z,55.50
2022-11-16T01:46:22.630Z,55.42
2022-11-16T01:48:53.053Z,55.46
2022-11-16T01:51:20.093Z,55.60
2022-11-16T01:53:46.866Z,55.79
2022-11-16T01:56:13.836Z,55.96
2022-11-16T01:58:41.139Z,55.84
2022-11-16T02:01:08.236Z,54.62
2022-11-16T02:03:37.694Z,55.03
2022-11-16T02:06:16.145Z,54.83
2022-11-16T02:09:30.682Z,54.75
2022-11-16T02:12:06.514Z,54.90
2022-11-16T02:15:13.358Z,55.02
2022-11-16T02:17:43.602Z,54.96
2022-11-16T02:20:39.179Z,55.21
2022-11-16T02:23:30.871Z,55.25
2022-11-16T02:25:57.581Z,55.24
2022-11-16T02:28:38.766Z,55.47
2022-11-16T02:31:06.474Z,55.39
2022-11-16T02:33:40.837Z,55.66
2022-11-16T02:36:10.357Z,55.42
2022-11-16T02:38:39.502Z,55.72
2022-11-16T02:41:10.889Z,55.70
2022-11-16T02:44:00.793Z,55.67
2022-11-16T02:46:30.813Z,56.06
2022-11-16T02:48:59.127Z,55.63
2022-11-16T02:51:27.285Z,55.97
2022-11-16T02:54:08.872Z,55.68
2022-11-16T02:56:45.597Z,56.08
2022-11-16T02:59:17.379Z,56.09
2022-11-16T03:01:48.469Z,55.87
2022-11-16T03:04:20.656Z,55.90
2022-11-16T03:06:48.724Z,56.16
2022-11-16T03:09:19.698Z,56.08
2022-11-16T03:12:02.930Z,56.02
2022-11-16T03:14:41.559Z,56.28
2022-11-16T03:17:13.744Z,56.27
2022-11-16T03:19:55.760Z,56.14
2022-11-16T03:22:34.166Z,56.64
2022-11-16T03:25:01.131Z,56.35
2022-11-16T03:27:37.722Z,56.41
2022-11-16T03:30:09.465Z,56.57
2022-11-16T03:32:39.378Z,56.37
2022-11-16T03:35:27.206Z,56.33
2022-11-16T03:37:56.536Z,56.44
2022-11-16T03:40:24.797Z,56.62
2022-11-16T03:42:52.285Z,56.45
2022-11-16T03:45:19.475Z,56.67
2022-11-16T03:47:46.377Z,56.89
2022-11-16T03:50:13.316Z,56.70
2022-11-16T03:52:40.109Z,56.95
2022-11-16T03:55:07.162Z,57.07
2022-11-16T03:57:33.971Z,56.67
2022-11-16T04:00:00.788Z,56.84
2022-11-16T04:02:27.559Z,56.76
2022-11-16T04:05:12.970Z,57.06
2022-11-16T04:07:58.539Z,56.85
2022-11-16T04:10:44.323Z,56.92
2022-11-16T04:13:31.743Z,56.85
2022-11-16T04:16:16.889Z,57.21
2022-11-16T04:19:02.436Z,57.13
2022-11-16T04:21:51.356Z,56.80
2022-11-16T04:24:23.656Z,57.06
2022-11-16T04:27:12.497Z,56.93
2022-11-16T04:29:39.548Z,57.15
2022-11-16T04:32:24.798Z,57.02
2022-11-16T04:35:10.140Z,57.09
2022-11-16T04:37:48.976Z,56.93
2022-11-16T04:40:20.500Z,56.86
2022-11-16T04:42:52.004Z,57.13
2022-11-16T04:45:37.788Z,57.11
2022-11-16T04:48:05.158Z,56.93
2022-11-16T04:50:32.161Z,56.82
2022-11-16T04:52:59.265Z,57.17
2022-11-16T04:55:26.706Z,57.30
2022-11-16T04:57:53.711Z,57.17
2022-11-16T05:00:20.760Z,56.82
2022-11-16T05:02:47.456Z,56.79
2022-11-16T05:05:14.353Z,56.83
2022-11-16T05:07:41.404Z,56.98
2022-11-16T05:10:08.542Z,57.04
2022-11-16T05:12:35.580Z,57.14
2022-11-16T05:15:02.477Z,57.07
2022-11-16T05:17:29.345Z,56.83
2022-11-16T05:20:14.811Z,57.24
2022-11-16T05:22:41.612Z,57.34
2022-11-16T05:25:09.044Z,57.04
2022-11-16T05:27:36.416Z,57.37
2022-11-16T05:30:04.778Z,57.01
2022-11-16T05:32:31.847Z,57.33
2022-11-16T05:34:58.579Z,57.01
2022-11-16T05:37:26.805Z,57.53
2022-11-16T05:39:54.966Z,57.02
2022-11-16T05:42:21.763Z,57.17
2022-11-16T05:44:48.800Z,57.18
2022-11-16T05:47:15.586Z,57.50
2022-11-16T05:49:42.426Z,57.35
2022-11-16T05:52:09.190Z,56.83
2022-11-16T05:54:35.980Z,57.01
2022-11-16T05:57:02.712Z,56.54
2022-11-16T05:59:30.140Z,56.00
2022-11-16T06:01:57.840Z,55.95
2022-11-16T06:04:25.101Z,55.67
2022-11-16T06:06:52.004Z,55.29
2022-11-16T06:09:18.947Z,55.36
2022-11-16T06:11:45.695Z,55.07
2022-11-16T06:14:12.559Z,55.36
2022-11-16T06:16:39.343Z,55.06
2022-11-16T06:19:06.109Z,55.04
2022-11-16T06:21:33.146Z,55.01
2022-11-16T06:23:59.960Z,55.19
2022-11-16T06:26:26.711Z,54.98
2022-11-16T06:28:54.974Z,54.88
2022-11-16T06:31:21.959Z,54.89
2022-11-16T06:33:48.679Z,55.33
2022-11-16T06:36:15.457Z,55.11
2022-11-16T06:38:42.197Z,54.93
2022-11-16T06:41:09.031Z,55.24
2022-11-16T06:43:36.080Z,55.96
2022-11-16T06:46:02.897Z,55.26
2022-11-16T06:48:30.677Z,55.36
2022-11-16T06:50:57.577Z,54.84
2022-11-16T06:53:28.934Z,54.79
2022-11-16T06:56:00.458Z,54.60
2022-11-16T06:58:29.227Z,54.69
2022-11-16T07:00:56.070Z,54.31
2022-11-16T07:03:22.792Z,53.64
2022-11-16T07:05:50.049Z,53.96
2022-11-16T07:08:16.831Z,53.70
2022-11-16T07:10:43.503Z,53.54
2022-11-16T07:13:10.318Z,53.47
2022-11-16T07:15:37.081Z,53.46
2022-11-16T07:18:05.491Z,54.36
2022-11-16T07:20:32.765Z,54.63
2022-11-16T07:23:01.113Z,54.86
2022-11-16T07:25:27.943Z,55.00
2022-11-16T07:27:54.701Z,54.98
2022-11-16T07:30:21.447Z,55.22
2022-11-16T08:46:36.810Z,77.90
2022-11-16T08:49:03.778Z,78.86
2022-11-16T08:51:30.494Z,80.20
2022-11-16T08:53:58.181Z,77.65
2022-11-16T08:56:27.525Z,72.65
2022-11-16T08:58:58.480Z,72.55
2022-11-16T09:01:27.376Z,73.30
2022-11-16T09:03:54.369Z,73.56
2022-11-16T09:06:22.275Z,75.11
2022-11-16T09:08:49.503Z,75.80
2022-11-16T09:11:20.240Z,76.29
2022-11-16T09:13:48.591Z,76.54
2022-11-16T09:16:16.728Z,77.28
2022-11-16T09:18:45.622Z,76.55
2022-11-16T09:21:12.315Z,76.97
2022-11-16T09:23:39.045Z,77.47
2022-11-16T09:26:07.799Z,77.89
2022-11-16T09:28:34.852Z,79.13
2022-11-16T09:31:04.269Z,79.39
2022-11-16T09:33:31.502Z,79.32
2022-11-16T09:36:06.785Z,80.07
2022-11-16T09:39:13.904Z,80.16
2022-11-16T09:41:39.431Z,80.36
2022-11-16T09:44:09.516Z,80.65
2022-11-16T09:46:40.063Z,80.69
2022-11-16T09:49:23.265Z,80.89
2022-11-16T09:51:53.563Z,80.57
2022-11-16T09:54:24.929Z,80.97
2022-11-16T09:56:54.511Z,81.67
2022-11-16T09:59:32.219Z,79.12
2022-11-16T10:02:26.542Z,79.69
2022-11-16T10:05:08.376Z,79.46
2022-11-16T10:07:46.703Z,77.97
2022-11-16T10:10:37.761Z,80.74
2022-11-16T10:13:38.441Z,73.48
2022-11-16T10:16:19.828Z,74.97
2022-11-16T10:18:53.742Z,76.02
2022-11-16T10:21:30.952Z,76.72
2022-11-16T10:24:22.385Z,78.21
2022-11-16T10:27:27.760Z,79.73
2022-11-16T10:29:54.420Z,80.36
2022-11-16T10:32:28.901Z,80.54
2022-11-16T10:35:11.097Z,81.12
2022-11-16T10:37:50.159Z,81.56
2022-11-16T10:40:23.675Z,82.23
2022-11-16T10:43:01.085Z,81.72
2022-11-16T10:45:58.065Z,81.70
2022-11-16T10:48:30.976Z,82.50
2022-11-16T10:50:57.823Z,81.71
2022-11-16T10:53:32.036Z,81.59
2022-11-16T10:56:21.620Z,81.63
2022-11-16T10:59:01.304Z,81.92
2022-11-16T11:01:49.519Z,81.18
2022-11-16T11:04:28.508Z,81.51
2022-11-16T11:07:00.853Z,81.98
2022-11-16T11:09:35.953Z,81.94
2022-11-16T11:12:35.586Z,81.64
2022-11-16T11:15:11.368Z,81.00
2022-11-16T11:17:40.823Z,80.40
2022-11-16T11:20:27.932Z,80.97
2022-11-16T11:23:00.182Z,80.61
2022-11-16T11:25:36.948Z,80.98
2022-11-16T11:28:20.301Z,81.26
2022-11-16T11:31:07.457Z,81.04
2022-11-16T11:33:37.533Z,81.24
2022-11-16T11:36:04.575Z,81.09
2022-11-16T11:38:32.272Z,81.64
2022-11-16T11:41:05.180Z,81.46
2022-11-16T11:43:34.303Z,81.72
2022-11-16T11:46:09.781Z,81.88
2022-11-16T11:49:01.501Z,82.10
2022-11-16T11:51:33.906Z,82.11
2022-11-16T11:54:02.601Z,82.23
2022-11-16T11:56:31.902Z,82.07
2022-11-16T11:58:58.902Z,82.41
2022-11-16T12:01:44.371Z,82.28
2022-11-16T12:04:25.867Z,81.96
2022-11-16T12:06:59.686Z,81.71
2022-11-16T12:09:31.272Z,81.71
2022-11-16T12:12:16.625Z,81.59
2022-11-16T12:15:21.557Z,81.88
2022-11-16T12:18:06.147Z,81.53
2022-11-16T12:20:35.257Z,81.31
2022-11-16T12:23:20.136Z,81.79
2022-11-16T12:25:57.119Z,81.71
2022-11-16T12:28:51.059Z,81.84
2022-11-16T12:31:42.587Z,81.81
2022-11-16T12:34:38.322Z,82.22
2022-11-16T12:37:10.986Z,82.50
2022-11-16T12:40:22.834Z,82.72
2022-11-16T12:43:08.843Z,82.74
2022-11-16T12:45:57.767Z,81.82
2022-11-16T12:48:38.882Z,82.40
2022-11-16T12:51:14.415Z,82.24
2022-11-16T12:54:11.679Z,82.59
2022-11-16T12:56:53.009Z,82.45
2022-11-16T12:59:32.234Z,82.65
2022-11-16T13:02:17.439Z,82.40
2022-11-16T13:04:51.033Z,82.60
2022-11-16T13:07:23.390Z,82.44
2022-11-16T13:09:56.241Z,82.46
2022-11-16T13:12:23.619Z,82.53
2022-11-16T13:14:53.146Z,82.55
2022-11-16T13:17:26.883Z,82.26
2022-11-16T13:20:21.641Z,82.67
2022-11-16T13:22:58.202Z,82.69
2022-11-16T13:25:31.642Z,81.72
2022-11-16T13:28:20.098Z,82.05
2022-11-16T13:31:09.130Z,81.59
2022-11-16T13:33:42.313Z,81.28
2022-11-16T13:36:54.687Z,81.64
2022-11-16T13:39:50.327Z,81.46
2022-11-16T13:42:17.754Z,81.70
2022-11-16T13:44:50.324Z,81.42
2022-11-16T13:47:24.836Z,81.52
2022-11-16T13:50:00.414Z,81.91
2022-11-16T13:53:36.383Z,82.08
2022-11-16T13:55:36.178Z,80.94
2022-11-16T13:58:05.364Z,81.08
2022-11-16T14:00:37.044Z,81.48
2022-11-16T14:03:15.543Z,81.21
2022-11-16T14:05:42.360Z,81.74
2022-11-16T14:08:24.330Z,81.37
2022-11-16T14:10:50.983Z,81.83
2022-11-16T14:13:36.609Z,81.13
2022-11-16T14:16:21.682Z,81.29
2022-11-16T14:18:50.538Z,81.79
2022-11-16T14:21:35.185Z,81.64
2022-11-16T14:24:07.701Z,81.88
2022-11-16T14:26:43.492Z,82.25
2022-11-16T14:29:15.894Z,82.05
2022-11-16T14:31:57.040Z,82.13
2022-11-16T14:34:30.355Z,82.07
2022-11-16T14:36:58.788Z,81.90
2022-11-16T14:39:32.629Z,81.92
2022-11-16T14:42:03.484Z,81.85
2022-11-16T14:44:41.451Z,81.80
2022-11-16T14:47:36.031Z,82.01
2022-11-16T14:50:18.550Z,82.12
2022-11-16T14:52:51.947Z,82.72
2022-11-16T14:55:24.600Z,81.86
2022-11-16T14:58:26.777Z,82.20
2022-11-16T15:00:55.515Z,82.91
2022-11-16T15:03:26.043Z,82.93
2022-11-16T15:06:10.345Z,82.99
2022-11-16T15:08:42.482Z,82.41
2022-11-16T15:11:20.179Z,82.42
2022-11-16T15:13:47.391Z,82.60
2022-11-16T15:16:19.503Z,82.42
2022-11-16T15:18:59.532Z,82.04
2022-11-16T15:21:28.708Z,82.52
2022-11-16T15:26:44.123Z,82.53
2022-11-16T15:29:18.968Z,82.76
2022-11-16T15:31:45.930Z,82.83
2022-11-16T15:34:13.739Z,82.92
2022-11-16T15:36:41.318Z,82.79
2022-11-16T15:39:20.004Z,82.46
2022-11-16T15:41:47.144Z,83.07
2022-11-16T15:44:16.911Z,82.51
2022-11-16T15:46:46.050Z,82.40
2022-11-16T15:49:37.520Z,82.26
2022-11-16T15:52:05.587Z,82.28
2022-11-16T15:54:52.435Z,82.42
2022-11-16T15:57:20.757Z,82.52
2022-11-16T15:59:49.719Z,83.29
2022-11-16T16:02:18.895Z,83.12
2022-11-16T16:04:45.613Z,83.37
2022-11-16T16:07:13.638Z,83.27
2022-11-16T16:09:41.028Z,83.09
2022-11-16T16:12:24.709Z,83.22
2022-11-16T16:14:52.224Z,83.10
2022-11-16T16:17:26.749Z,83.14
2022-11-16T16:19:55.911Z,83.06
2022-11-16T16:22:34.296Z,82.90
2022-11-16T16:25:01.802Z,82.79
2022-11-16T16:27:30.271Z,82.54
2022-11-16T16:30:03.842Z,83.07
2022-11-16T16:32:34.237Z,82.52
2022-11-16T16:35:03.165Z,83.06
2022-11-16T16:37:31.560Z,82.59
2022-11-16T16:39:58.987Z,82.68
2022-11-16T16:42:26.163Z,82.71
2022-11-16T16:44:53.029Z,82.31
2022-11-16T16:47:22.520Z,82.64
2022-11-16T16:49:49.329Z,82.55
2022-11-16T16:52:16.545Z,83.19
2022-11-16T16:54:43.448Z,82.89
2022-11-16T16:57:17.151Z,83.07
2022-11-16T16:59:48.599Z,83.23
2022-11-16T17:02:16.147Z,83.18
2022-11-16T17:04:44.048Z,82.49
2022-11-16T17:07:10.746Z,82.88
2022-11-16T17:09:37.437Z,82.71
2022-11-16T17:12:04.426Z,82.54
2022-11-16T17:14:31.088Z,83.06
2022-11-16T17:16:57.826Z,83.68
2022-11-16T17:19:24.575Z,83.61
2022-11-16T17:21:52.117Z,83.73
2022-11-16T17:24:18.815Z,83.26
2022-11-16T17:26:48.342Z,82.96
2022-11-16T17:29:15.303Z,82.88
2022-11-16T17:31:44.074Z,82.75
2022-11-16T17:34:13.812Z,82.78
2022-11-16T17:36:41.927Z,82.96
2022-11-16T17:39:08.848Z,82.81
2022-11-16T17:41:35.524Z,82.41
2022-11-16T17:44:02.419Z,82.87
2022-11-16T17:46:29.279Z,82.63
2022-11-16T17:48:56.208Z,82.51
2022-11-16T17:51:24.829Z,82.71
2022-11-16T17:53:51.897Z,82.07
2022-11-16T17:56:21.136Z,82.60
2022-11-16T17:58:49.999Z,82.67
2022-11-16T18:01:16.742Z,82.56
2022-11-16T18:03:43.460Z,82.47
2022-11-16T18:06:15.833Z,82.78
2022-11-16T18:08:45.953Z,82.42
2022-11-16T18:11:13.866Z,82.38
2022-11-16T18:13:40.614Z,82.31
2022-11-16T18:16:21.059Z,82.51
2022-11-16T18:18:48.706Z,81.94
2022-11-16T18:21:20.730Z,82.66
2022-11-16T18:23:48.093Z,82.61
2022-11-16T18:26:16.655Z,82.58
2022-11-16T18:28:49.119Z,82.40
2022-11-16T18:31:18.458Z,82.35
2022-11-16T18:33:45.247Z,82.25
2022-11-16T18:36:12.641Z,82.39
2022-11-16T18:38:39.475Z,82.66
2022-11-16T18:41:12.019Z,81.96
2022-11-16T18:43:48.360Z,81.88
2022-11-16T18:46:15.299Z,82.23
2022-11-16T18:48:43.348Z,82.55
2022-11-16T18:51:11.164Z,82.81
2022-11-16T18:53:38.338Z,83.22
2022-11-16T18:56:05.721Z,83.02
2022-11-16T19:01:23.930Z,82.90
2022-11-16T19:03:51.833Z,82.79
2022-11-16T19:06:19.097Z,82.96
2022-11-16T19:08:53.767Z,82.70
2022-11-16T19:11:23.759Z,82.24
2022-11-16T19:14:03.835Z,82.35
2022-11-16T19:16:31.018Z,82.21
2022-11-16T19:18:57.642Z,82.82
2022-11-16T19:21:24.584Z,82.22
2022-11-16T19:23:53.677Z,81.82
2022-11-16T19:26:22.517Z,82.02
2022-11-16T19:28:50.175Z,82.26
2022-11-16T19:31:22.340Z,82.99
2022-11-16T19:33:53.988Z,82.74
2022-11-16T19:36:20.990Z,82.67
2022-11-16T19:38:48.489Z,82.39
2022-11-16T19:41:16.145Z,82.60
2022-11-16T19:43:42.929Z,82.79
2022-11-16T19:46:17.429Z,82.52
2022-11-16T19:48:45.828Z,81.76
2022-11-16T19:51:17.602Z,81.30
2022-11-16T19:53:44.495Z,81.45
2022-11-16T19:56:13.454Z,81.40
2022-11-16T19:58:40.689Z,80.12
2022-11-16T20:01:10.985Z,80.91
2022-11-16T20:03:41.780Z,81.20
2022-11-16T20:06:10.988Z,81.09
2022-11-16T20:08:40.425Z,82.00
2022-11-16T20:11:12.389Z,82.49
2022-11-16T20:13:39.064Z,82.70
2022-11-16T20:16:07.444Z,83.14
2022-11-16T20:18:34.191Z,81.94
2022-11-16T20:21:05.356Z,82.29
2022-11-16T20:23:36.076Z,81.38
2022-11-16T20:26:07.349Z,81.67
2022-11-16T20:28:38.536Z,82.17
2022-11-16T20:31:11.295Z,82.02
2022-11-16T20:33:38.315Z,81.85
2022-11-16T20:36:10.449Z,81.43
2022-11-16T20:38:38.412Z,81.22
2022-11-16T20:41:13.033Z,81.43
2022-11-16T20:43:40.258Z,81.25
2022-11-16T20:46:08.843Z,81.11
2022-11-16T20:48:36.322Z,81.55
2022-11-16T20:51:03.365Z,81.50
2022-11-16T20:53:30.210Z,82.03
2022-11-16T20:55:57.581Z,81.26
2022-11-16T20:58:24.871Z,81.44
2022-11-16T21:00:51.626Z,82.33
2022-11-16T21:03:18.317Z,83.27
2022-11-16T21:05:46.215Z,83.28
2022-11-16T21:08:12.942Z,83.56
2022-11-16T21:10:39.883Z,83.09
2022-11-16T21:13:26.154Z,83.13
2022-11-16T21:16:01.228Z,82.86
2022-11-16T21:18:30.909Z,82.52
2022-11-16T21:21:01.745Z,82.62
2022-11-16T21:23:29.955Z,82.56
2022-11-16T21:26:08.613Z,82.73
2022-11-16T21:28:35.217Z,82.01
2022-11-16T21:31:04.409Z,82.07
2022-11-16T21:33:31.800Z,81.78
2022-11-16T21:36:06.237Z,82.16
2022-11-16T21:38:34.051Z,81.44
2022-11-16T21:41:01.179Z,81.48
2022-11-16T21:43:28.340Z,81.58
2022-11-16T21:46:01.371Z,81.85
2022-11-16T21:48:28.086Z,81.56
2022-11-16T21:51:09.356Z,81.51
2022-11-16T21:53:36.518Z,81.63
2022-11-16T21:56:04.483Z,82.06
2022-11-16T21:58:31.390Z,81.56
2022-11-16T22:00:59.872Z,81.98
2022-11-16T22:03:28.787Z,81.67
2022-11-16T22:06:15.731Z,81.77
2022-11-16T22:08:42.609Z,81.90
2022-11-16T22:11:09.769Z,81.87
2022-11-16T22:13:37.587Z,81.68
2022-11-16T22:16:09.142Z,81.42
2022-11-16T22:18:36.133Z,81.50
2022-11-16T22:21:03.103Z,81.72
2022-11-16T22:23:30.066Z,81.72
2022-11-16T22:26:06.494Z,81.55
2022-11-16T22:28:34.853Z,81.44
2022-11-16T22:31:09.836Z,81.71
2022-11-16T22:33:37.162Z,81.87
2022-11-16T22:36:04.844Z,81.43
2022-11-16T22:38:31.511Z,81.01
2022-11-16T22:40:58.207Z,81.66
2022-11-16T22:43:26.977Z,81.73
2022-11-16T22:46:01.014Z,81.82
2022-11-16T22:48:31.439Z,81.62
2022-11-16T22:51:23.242Z,81.87
2022-11-16T22:53:54.326Z,82.11
2022-11-16T22:56:21.354Z,81.84
2022-11-16T22:58:47.987Z,82.24
2022-11-16T23:01:14.671Z,82.24
2022-11-16T23:03:41.537Z,81.97
2022-11-16T23:06:08.471Z,81.82
2022-11-16T23:08:35.643Z,82.17
2022-11-16T23:11:22.678Z,81.86
2022-11-16T23:14:08.483Z,82.14
2022-11-16T23:16:35.355Z,82.32
2022-11-16T23:19:02.130Z,82.47
2022-11-16T23:21:47.420Z,81.99
2022-11-16T23:24:33.756Z,82.12
2022-11-16T23:27:22.369Z,82.22
2022-11-16T23:29:49.367Z,82.25
2022-11-16T23:32:16.069Z,82.38
2022-11-16T23:34:42.702Z,82.37
2022-11-16T23:37:09.413Z,82.14
2022-11-16T23:39:36.090Z,82.41
2022-11-16T23:42:21.427Z,82.04
2022-11-16T23:44:48.150Z,82.37
2022-11-16T23:47:14.870Z,82.19
2022-11-16T23:49:41.763Z,82.06
2022-11-16T23:52:08.417Z,81.53
2022-11-16T23:54:35.111Z,81.89
2022-11-16T23:57:01.782Z,81.90
2022-11-16T23:59:28.429Z,82.12
